Time;durP1;ratioP1;P1;durP2;ratioP2;P2;SDS_P1;SDS_P2;PMS_P1;PMS_P2;Temp;Humidity;BMP_temperature;BMP_pressure;BME280_temperature;BME280_humidity;BME280_pressure;Samples;Min_cycle;Max_cycle;Signal;HPM_P1;HPM_P2
2021/03/29 00:01:02;;;;;;;3.83;0.97;;;4.90;99.90;;;;;;4920123;29;20209;-89
2021/03/29 00:03:34;;;;;;;1.00;0.73;;;5.00;99.90;;;;;;4920178;29;20193;-89
2021/03/29 00:06:07;;;;;;;2.67;0.93;;;5.00;99.90;;;;;;4919735;29;20254;-91
2021/03/29 00:08:38;;;;;;;3.90;1.10;;;5.00;99.90;;;;;;4919483;29;20206;-89
2021/03/29 00:11:11;;;;;;;2.47;0.80;;;5.10;99.90;;;;;;4915500;29;20209;-92
2021/03/29 00:13:45;;;;;;;1.80;1.03;;;5.10;99.90;;;;;;4908147;29;20224;-91
2021/03/29 00:16:16;;;;;;;2.97;2.57;;;5.00;99.90;;;;;;4908101;29;20715;-93
2021/03/29 00:18:47;;;;;;;3.07;2.50;;;5.00;99.90;;;;;;4904514;29;20225;-93
2021/03/29 00:21:20;;;;;;;3.50;2.40;;;4.80;99.90;;;;;;4902736;29;20206;-93
2021/03/29 00:23:52;;;;;;;3.17;1.70;;;4.90;99.90;;;;;;4904861;29;20218;-94
2021/03/29 00:26:24;;;;;;;3.33;2.10;;;5.00;99.90;;;;;;4902794;29;20229;-94
2021/03/29 00:28:57;;;;;;;2.93;1.47;;;5.10;99.90;;;;;;4902505;29;20202;-92
2021/03/29 00:31:29;;;;;;;2.40;1.50;;;5.20;99.90;;;;;;4905631;29;20262;-94
2021/03/29 00:34:06;;;;;;;1.23;0.90;;;5.40;99.90;;;;;;4904671;29;20214;-93
2021/03/29 00:36:40;;;;;;;3.37;1.20;;;5.50;99.90;;;;;;4904462;29;20277;-92
2021/03/29 00:39:13;;;;;;;0.97;0.90;;;5.60;99.90;;;;;;4899695;29;20217;-92
2021/03/29 00:41:45;;;;;;;2.50;1.50;;;5.70;99.90;;;;;;4903940;29;20217;-92
2021/03/29 00:44:25;;;;;;;1.67;1.57;;;5.80;99.90;;;;;;4902762;29;20225;-92
2021/03/29 00:46:57;;;;;;;1.40;1.20;;;5.80;99.90;;;;;;4904200;29;20742;-91
2021/03/29 00:49:29;;;;;;;2.27;1.20;;;5.90;99.90;;;;;;4905749;29;20314;-92
2021/03/29 00:52:03;;;;;;;3.33;1.67;;;6.00;99.90;;;;;;4903517;29;20213;-92
2021/03/29 00:54:37;;;;;;;2.23;1.60;;;6.10;99.90;;;;;;4903788;29;20217;-92
2021/03/29 00:57:08;;;;;;;3.77;1.90;;;6.00;99.90;;;;;;4902511;29;20367;-92
2021/03/29 00:59:40;;;;;;;4.67;2.20;;;6.00;99.90;;;;;;4903288;29;20572;-92
2021/03/29 01:02:11;;;;;;;3.73;1.70;;;6.10;99.90;;;;;;4905691;29;20209;-92
2021/03/29 01:04:42;;;;;;;3.13;1.53;;;6.00;99.90;;;;;;4904273;29;20217;-93
2021/03/29 01:07:18;;;;;;;3.27;1.77;;;6.00;99.90;;;;;;4905422;29;20236;-92
2021/03/29 01:09:52;;;;;;;2.57;1.30;;;6.00;99.90;;;;;;4907856;29;20213;-92
2021/03/29 01:12:26;;;;;;;3.30;1.30;;;6.00;99.90;;;;;;4902914;29;20651;-94
2021/03/29 01:14:58;;;;;;;2.20;1.30;;;6.00;99.90;;;;;;4903742;29;20241;-94
2021/03/29 01:17:33;;;;;;;2.13;1.30;;;6.00;99.90;;;;;;4906878;29;20235;-94
2021/03/29 01:20:23;;;;;;;2.43;1.40;;;6.10;99.90;;;;;;4909891;29;20206;-94
2021/03/29 01:22:57;;;;;;;1.77;1.00;;;6.20;99.90;;;;;;4911372;29;20248;-93
2021/03/29 01:25:36;;;;;;;1.67;0.80;;;6.20;99.90;;;;;;4892312;29;20208;-92
2021/03/29 01:28:13;;;;;;;2.10;0.80;;;6.20;99.90;;;;;;4905436;29;20217;-93
2021/03/29 01:30:48;;;;;;;1.93;1.40;;;6.30;99.90;;;;;;4907516;29;20229;-94
2021/03/29 01:33:20;;;;;;;2.67;1.73;;;6.10;99.90;;;;;;4914905;28;20194;-93
2021/03/29 01:35:56;;;;;;;4.00;1.60;;;6.10;99.90;;;;;;4922576;29;20197;-93
2021/03/29 01:38:28;;;;;;;2.23;1.13;;;6.00;99.90;;;;;;4921421;29;20228;-92
2021/03/29 01:41:00;;;;;;;4.43;1.13;;;5.90;99.90;;;;;;4918289;29;20214;-93
2021/03/29 01:43:33;;;;;;;3.47;1.10;;;5.90;99.90;;;;;;4918850;29;20234;-93
2021/03/29 01:46:05;;;;;;;2.60;1.43;;;5.90;99.90;;;;;;4921874;28;20197;-93
2021/03/29 01:48:36;;;;;;;5.13;1.43;;;5.90;99.90;;;;;;4920595;28;20213;-92
2021/03/29 01:51:08;;;;;;;4.40;1.47;;;5.80;99.90;;;;;;4921100;28;20246;-92
2021/03/29 01:53:39;;;;;;;4.33;1.67;;;5.80;99.90;;;;;;4915454;29;20202;-93
2021/03/29 01:56:10;;;;;;;4.10;1.40;;;5.90;99.90;;;;;;4921388;29;20245;-91
2021/03/29 01:58:44;;;;;;;3.47;1.30;;;5.90;99.90;;;;;;4912902;29;20233;-92
2021/03/29 02:01:17;;;;;;;2.83;1.30;;;5.90;99.90;;;;;;4906320;29;20658;-92
2021/03/29 02:03:58;;;;;;;3.40;1.40;;;5.90;99.90;;;;;;4909861;29;20286;-92
2021/03/29 02:06:29;;;;;;;3.27;1.20;;;5.90;99.90;;;;;;4906483;29;20276;-93
2021/03/29 02:09:01;;;;;;;3.03;1.17;;;6.00;99.90;;;;;;4909639;29;20231;-92
2021/03/29 02:11:36;;;;;;;4.83;1.23;;;6.00;99.90;;;;;;4909214;29;20213;-91
2021/03/29 02:14:11;;;;;;;2.00;0.80;;;6.00;99.90;;;;;;4908594;29;20206;-93
2021/03/29 02:16:43;;;;;;;1.87;0.80;;;5.90;99.90;;;;;;4910739;29;20237;-91
2021/03/29 02:19:14;;;;;;;0.87;0.70;;;5.90;99.90;;;;;;4910145;29;20211;-93
2021/03/29 02:21:45;;;;;;;1.03;0.53;;;5.80;99.90;;;;;;4907149;29;20214;-92
2021/03/29 02:24:16;;;;;;;1.77;0.70;;;5.80;99.90;;;;;;4905393;29;20579;-93
2021/03/29 02:26:47;;;;;;;3.13;0.63;;;5.80;99.90;;;;;;4904254;29;20210;-92
2021/03/29 02:29:26;;;;;;;1.13;0.70;;;5.80;99.90;;;;;;4899985;29;20213;-93
2021/03/29 02:31:58;;;;;;;2.67;1.40;;;5.80;99.90;;;;;;4904719;29;20217;-93
2021/03/29 02:34:30;;;;;;;2.67;1.40;;;5.70;99.90;;;;;;4902165;29;20214;-92
2021/03/29 02:37:02;;;;;;;2.80;1.70;;;5.60;99.90;;;;;;4903352;29;20260;-92
2021/03/29 02:39:37;;;;;;;3.13;1.60;;;5.50;99.90;;;;;;4901946;29;20689;-92
2021/03/29 02:42:09;;;;;;;1.73;1.23;;;5.40;99.90;;;;;;4902661;29;20221;-93
2021/03/29 02:44:42;;;;;;;4.30;1.93;;;5.20;99.90;;;;;;4903511;29;20213;-95
2021/03/29 02:47:16;;;;;;;3.20;1.30;;;5.20;99.90;;;;;;4913401;29;20209;-92
2021/03/29 02:49:49;;;;;;;3.03;1.30;;;5.20;99.90;;;;;;4913852;29;20205;-93
2021/03/29 02:52:20;;;;;;;4.37;1.20;;;5.20;99.90;;;;;;4908472;29;20253;-91
2021/03/29 02:54:51;;;;;;;2.17;1.20;;;5.20;99.90;;;;;;4912477;29;20213;-90
2021/03/29 02:57:23;;;;;;;2.97;1.10;;;5.30;99.90;;;;;;4912835;29;20289;-89
2021/03/29 02:59:57;;;;;;;1.97;0.70;;;5.30;99.90;;;;;;4910966;29;20544;-89
2021/03/29 03:02:29;;;;;;;1.97;0.70;;;5.20;99.90;;;;;;4898674;29;20232;-89
2021/03/29 03:05:00;;;;;;;2.13;0.90;;;5.00;99.90;;;;;;4905663;29;20220;-90
2021/03/29 03:07:31;;;;;;;2.03;0.97;;;4.80;99.90;;;;;;4902785;29;20673;-90
2021/03/29 03:10:04;;;;;;;2.00;0.70;;;4.50;99.90;;;;;;4901310;29;20265;-91
2021/03/29 03:12:35;;;;;;;1.30;0.60;;;4.30;99.90;;;;;;4905195;29;20242;-90
2021/03/29 03:15:12;;;;;;;0.90;0.50;;;4.20;99.90;;;;;;4900135;29;20621;-90
2021/03/29 03:17:47;;;;;;;0.60;0.50;;;4.10;99.90;;;;;;4901273;29;20233;-91
2021/03/29 03:23:15;;;;;;;1.47;0.40;;;3.80;99.90;;;;;;4899797;29;20243;-91
2021/03/29 03:25:49;;;;;;;0.63;0.60;;;3.80;99.90;;;;;;4900144;29;20206;-90
2021/03/29 03:28:21;;;;;;;0.90;0.60;;;3.70;99.90;;;;;;4898906;29;20269;-91
2021/03/29 03:30:55;;;;;;;2.67;0.80;;;3.60;99.90;;;;;;4900035;29;20257;-91
2021/03/29 03:33:28;;;;;;;1.37;1.00;;;3.50;99.90;;;;;;4906315;29;20275;-92
2021/03/29 03:36:00;;;;;;;2.60;0.93;;;3.40;99.90;;;;;;4918493;29;20570;-91
2021/03/29 03:38:34;;;;;;;2.13;0.80;;;3.30;99.90;;;;;;4899187;29;20284;-92
2021/03/29 03:41:07;;;;;;;2.80;0.90;;;3.40;99.90;;;;;;4900609;29;20244;-91
2021/03/29 03:43:40;;;;;;;2.40;0.90;;;3.30;99.90;;;;;;4903709;29;20269;-92
2021/03/29 03:46:19;;;;;;;2.37;0.70;;;3.30;99.90;;;;;;4905145;29;20217;-90
2021/03/29 03:48:53;;;;;;;2.73;0.80;;;3.40;99.90;;;;;;4906940;29;20219;-91
2021/03/29 03:51:28;;;;;;;3.57;1.03;;;3.40;99.90;;;;;;4904901;29;20201;-91
2021/03/29 03:54:00;;;;;;;3.30;1.10;;;3.40;99.90;;;;;;4904092;29;20212;-89
2021/03/29 03:56:33;;;;;;;1.73;1.00;;;3.40;99.90;;;;;;4905823;29;20293;-90
2021/03/29 03:59:05;;;;;;;2.40;1.20;;;3.50;99.90;;;;;;4918802;29;20225;-90
2021/03/29 04:01:50;;;;;;;1.50;1.00;;;3.50;99.90;;;;;;4919820;29;20190;-93
2021/03/29 04:04:21;;;;;;;5.20;1.17;;;3.60;99.90;;;;;;4919409;29;20205;-91
2021/03/29 04:06:52;;;;;;;2.13;0.90;;;3.60;99.90;;;;;;4917269;29;20206;-91
2021/03/29 04:09:31;;;;;;;2.93;0.80;;;3.60;99.90;;;;;;4911318;29;20213;-91
2021/03/29 04:12:07;;;;;;;4.57;1.20;;;3.50;99.90;;;;;;4910591;29;20666;-92
2021/03/29 04:14:39;;;;;;;3.17;1.10;;;3.50;99.90;;;;;;4913489;29;20217;-90
2021/03/29 04:17:13;;;;;;;2.13;1.10;;;3.50;99.90;;;;;;4915608;29;20213;-91
2021/03/29 04:22:57;;;;;;;1.23;0.60;;;3.40;99.90;;;;;;4914828;29;20228;-91
2021/03/29 04:25:28;;;;;;;1.57;0.93;;;3.40;99.90;;;;;;4910423;29;20213;-91
2021/03/29 04:28:00;;;;;;;2.07;0.90;;;3.40;99.90;;;;;;4907700;29;20252;-91
2021/03/29 04:30:33;;;;;;;2.73;0.90;;;3.30;99.90;;;;;;4907346;29;20268;-91
2021/03/29 04:33:06;;;;;;;1.00;0.80;;;3.30;99.90;;;;;;4908323;29;20274;-91
2021/03/29 04:35:40;;;;;;;3.53;0.80;;;3.30;99.90;;;;;;4909524;29;20217;-91
2021/03/29 04:38:17;;;;;;;2.00;0.67;;;3.30;99.90;;;;;;4906372;29;20233;-91
2021/03/29 04:40:49;;;;;;;1.73;0.70;;;3.20;99.90;;;;;;4907799;29;20261;-90
2021/03/29 04:43:21;;;;;;;3.03;0.80;;;3.20;99.90;;;;;;4910254;29;20212;-90
2021/03/29 04:45:55;;;;;;;1.13;0.50;;;3.10;99.90;;;;;;4906445;29;20213;-91
2021/03/29 04:48:43;;;;;;;1.53;0.83;;;3.10;99.90;;;;;;4906327;29;20244;-91
2021/03/29 04:51:18;;;;;;;3.23;0.90;;;3.00;99.90;;;;;;4909401;29;20250;-93
2021/03/29 04:54:28;;;;;;;1.00;0.80;;;3.00;99.90;;;;;;4908574;29;20213;-92
2021/03/29 04:56:59;;;;;;;3.00;1.10;;;3.00;99.90;;;;;;4908010;29;20216;-93
2021/03/29 04:59:34;;;;;;;2.20;1.30;;;3.00;99.90;;;;;;4913809;29;20227;-92
2021/03/29 05:02:07;;;;;;;1.83;1.10;;;3.00;99.90;;;;;;4916586;29;20213;-91
2021/03/29 05:04:40;;;;;;;4.07;1.40;;;3.10;99.90;;;;;;4916135;29;20205;-93
2021/03/29 05:07:15;;;;;;;2.67;1.20;;;3.10;99.90;;;;;;4914372;29;20228;-92
2021/03/29 05:09:56;;;;;;;3.33;1.13;;;3.00;99.90;;;;;;4909177;29;20675;-94
2021/03/29 05:12:36;;;;;;;0.97;0.83;;;3.00;99.90;;;;;;4910102;29;20289;-92
2021/03/29 05:15:21;;;;;;;1.37;0.73;;;3.00;99.90;;;;;;4909007;29;20232;-92
2021/03/29 05:17:59;;;;;;;1.07;0.83;;;3.00;99.90;;;;;;4916258;29;20241;-92
2021/03/29 05:20:37;;;;;;;1.47;0.90;;;3.00;99.90;;;;;;4919419;29;20228;-90
2021/03/29 05:23:10;;;;;;;4.17;1.03;;;3.00;99.90;;;;;;4910725;29;20212;-89
2021/03/29 05:25:45;;;;;;;3.63;1.10;;;3.00;99.90;;;;;;4906170;29;20226;-91
2021/03/29 05:28:16;;;;;;;1.87;0.77;;;3.10;99.90;;;;;;4908008;29;20209;-91
2021/03/29 05:30:47;;;;;;;2.10;1.00;;;3.10;99.90;;;;;;4908556;29;20666;-91
2021/03/29 05:33:20;;;;;;;1.10;0.73;;;3.20;99.90;;;;;;4909295;29;20213;-91
2021/03/29 05:35:52;;;;;;;1.83;0.80;;;3.20;99.90;;;;;;4909463;29;20217;-90
2021/03/29 05:38:23;;;;;;;2.33;1.10;;;3.20;99.90;;;;;;4909063;29;20237;-91
2021/03/29 05:40:56;;;;;;;3.00;0.80;;;3.30;99.90;;;;;;4906556;29;20240;-92
2021/03/29 05:43:28;;;;;;;2.63;1.03;;;3.30;99.90;;;;;;4905556;29;20209;-89
2021/03/29 05:46:00;;;;;;;2.50;0.70;;;3.30;99.90;;;;;;4906068;29;20214;-90
2021/03/29 05:48:31;;;;;;;3.10;0.87;;;3.20;99.90;;;;;;4911394;29;20218;-89
2021/03/29 05:51:04;;;;;;;1.03;0.70;;;3.30;99.90;;;;;;4911632;29;20208;-89
2021/03/29 05:53:41;;;;;;;1.90;0.80;;;3.30;99.90;;;;;;4909338;29;20634;-88
2021/03/29 05:56:14;;;;;;;4.83;1.07;;;3.30;99.90;;;;;;4914293;29;20223;-87
2021/03/29 05:58:55;;;;;;;2.33;0.83;;;3.30;99.90;;;;;;4912117;29;20236;-92
2021/03/29 06:01:46;;;;;;;3.07;0.80;;;3.30;99.90;;;;;;4904996;29;20212;-92
2021/03/29 06:07:38;;;;;;;3.67;2.50;;;3.30;99.90;;;;;;4917667;29;20224;-92
2021/03/29 06:10:12;;;;;;;4.50;1.57;;;3.40;99.90;;;;;;4902912;29;20213;-92
2021/03/29 06:12:54;;;;;;;2.03;1.10;;;3.40;99.90;;;;;;4906312;29;20220;-93
2021/03/29 06:15:30;;;;;;;1.53;1.00;;;3.40;99.90;;;;;;4906184;29;20209;-93
2021/03/29 06:23:52;;;;;;;2.30;1.10;;;3.40;99.90;;;;;;5453139;23;20252;-93
2021/03/29 06:26:29;;;;;;;4.20;1.00;;;3.30;99.90;;;;;;4921279;29;20275;-94
2021/03/29 06:32:19;;;;;;;2.27;1.10;;;3.20;99.90;;;;;;4904981;29;20296;-92
2021/03/29 06:34:52;;;;;;;2.53;1.10;;;3.20;99.90;;;;;;4904038;29;20611;-92
2021/03/29 06:37:28;;;;;;;3.53;0.97;;;3.20;99.90;;;;;;4902499;29;20288;-91
2021/03/29 06:40:09;;;;;;;2.47;0.77;;;3.20;99.90;;;;;;4901402;29;20209;-91
2021/03/29 06:42:42;;;;;;;2.10;0.80;;;3.20;99.90;;;;;;4902398;29;20280;-92
2021/03/29 06:45:15;;;;;;;2.57;1.23;;;3.30;99.90;;;;;;4903341;29;20266;-92
2021/03/29 06:47:54;;;;;;;2.90;1.40;;;3.30;99.90;;;;;;4902938;29;20241;-91
2021/03/29 06:50:29;;;;;;;3.23;1.13;;;3.30;99.90;;;;;;4901832;29;20204;-92
2021/03/29 06:53:02;;;;;;;4.10;1.27;;;3.30;99.90;;;;;;4902923;29;20224;-91
2021/03/29 06:55:35;;;;;;;3.30;0.90;;;3.30;99.90;;;;;;4906582;29;20675;-92
2021/03/29 06:58:08;;;;;;;7.40;1.70;;;3.30;99.90;;;;;;4905185;29;20237;-93
2021/03/29 07:00:42;;;;;;;4.07;1.43;;;3.30;99.90;;;;;;4904086;29;20216;-91
2021/03/29 07:03:15;;;;;;;4.83;1.10;;;3.30;99.90;;;;;;4901976;29;20209;-92
2021/03/29 07:05:50;;;;;;;5.23;0.90;;;3.40;99.90;;;;;;4903293;29;20264;-92
2021/03/29 07:08:22;;;;;;;4.23;1.27;;;3.40;99.90;;;;;;4902033;29;20209;-92
2021/03/29 07:10:55;;;;;;;5.20;1.37;;;3.40;99.90;;;;;;4903008;29;20757;-93
2021/03/29 07:13:35;;;;;;;2.67;1.00;;;3.40;99.90;;;;;;4902446;29;20224;-93
2021/03/29 07:21:42;;;;;;;4.53;1.30;;;3.40;99.90;;;;;;4979592;23;20247;-90
2021/03/29 07:24:15;;;;;;;4.07;1.60;;;3.40;99.90;;;;;;4919359;29;20218;-91
2021/03/29 07:26:56;;;;;;;6.93;1.60;;;3.50;99.90;;;;;;4918621;29;20233;-92
2021/03/29 07:32:38;;;;;;;4.30;1.70;;;3.50;99.90;;;;;;4886870;29;20206;-93
2021/03/29 07:35:13;;;;;;;6.07;1.63;;;3.50;99.90;;;;;;4884044;29;20277;-92
2021/03/29 07:40:52;;;;;;;5.57;1.97;;;3.50;99.90;;;;;;4899239;29;20209;-93
2021/03/29 07:43:28;;;;;;;4.83;1.67;;;3.50;99.90;;;;;;4888434;29;20457;-94
2021/03/29 07:46:03;;;;;;;8.63;1.57;;;3.50;99.90;;;;;;4887034;29;20236;-92
2021/03/29 07:48:36;;;;;;;9.67;2.10;;;3.50;99.90;;;;;;4886640;29;20217;-93
2021/03/29 07:51:10;;;;;;;7.37;2.10;;;3.60;99.90;;;;;;4886777;29;20214;-92
2021/03/29 07:53:50;;;;;;;9.50;2.33;;;3.60;99.90;;;;;;4886831;29;20218;-93
2021/03/29 07:56:40;;;;;;;7.37;1.80;;;3.60;99.90;;;;;;4887200;29;20245;-92
2021/03/29 07:59:42;;;;;;;5.40;1.80;;;3.60;99.90;;;;;;4892719;29;20240;-92
2021/03/29 08:08:42;;;;;;;7.57;2.23;;;3.70;99.90;;;;;;4893769;29;20248;-93
2021/03/29 08:11:17;;;;;;;5.53;1.73;;;3.70;99.90;;;;;;4896847;29;20296;-91
2021/03/29 08:16:45;;;;;;;4.40;1.57;;;3.70;99.90;;;;;;4896310;29;20226;-93
2021/03/29 08:19:18;;;;;;;8.70;1.67;;;3.70;99.90;;;;;;4896547;29;20245;-92
2021/03/29 08:21:55;;;;;;;11.93;2.10;;;3.70;99.90;;;;;;4903840;29;20225;-93
2021/03/29 08:24:29;;;;;;;7.20;1.97;;;3.70;99.90;;;;;;4920931;29;20212;-94
2021/03/29 08:27:28;;;;;;;6.07;2.00;;;3.70;99.90;;;;;;4911725;29;20284;-93
2021/03/29 08:30:13;;;;;;;4.47;1.93;;;3.60;99.90;;;;;;4911369;29;20217;-93
2021/03/29 08:32:46;;;;;;;5.23;2.00;;;3.50;99.90;;;;;;4907623;29;20590;-92
2021/03/29 08:35:22;;;;;;;9.37;1.80;;;3.50;99.90;;;;;;4912593;29;20268;-92
2021/03/29 08:37:55;;;;;;;7.47;1.67;;;3.50;99.90;;;;;;4916449;29;20252;-90
2021/03/29 08:40:28;;;;;;;10.13;2.20;;;3.60;99.90;;;;;;4923519;29;20259;-92
2021/03/29 08:43:06;;;;;;;6.57;1.67;;;3.60;99.90;;;;;;4923899;29;20757;-92
2021/03/29 09:08:11;;;;;;;6.10;2.13;;;3.60;99.90;;;;;;5498566;23;20334;-93
2021/03/29 09:10:45;;;;;;;6.70;1.87;;;3.60;99.90;;;;;;4913881;29;20223;-94
2021/03/29 09:13:23;;;;;;;7.07;2.10;;;3.60;99.90;;;;;;4905896;29;20217;-93
2021/03/29 09:15:55;;;;;;;9.23;2.33;;;3.70;99.90;;;;;;4904340;29;20264;-93
2021/03/29 09:29:56;;;;;;;5.70;2.47;;;3.40;99.90;;;;;;4943684;23;20304;-93
2021/03/29 09:32:30;;;;;;;7.57;2.30;;;3.40;99.90;;;;;;4909261;29;20213;-93
2021/03/29 09:35:00;;;;;;;6.27;1.90;;;3.20;99.90;;;;;;4934663;29;20574;-93
2021/03/29 09:40:37;;;;;;;7.63;1.90;;;3.20;99.90;;;;;;4914119;29;20265;-92
2021/03/29 09:43:22;;;;;;;7.27;2.13;;;3.20;99.90;;;;;;4908938;29;20216;-93
2021/03/29 09:46:06;;;;;;;4.30;1.93;;;3.20;99.90;;;;;;4903118;29;20219;-93
2021/03/29 09:48:37;;;;;;;4.70;1.70;;;3.10;99.90;;;;;;4908537;29;20573;-93
2021/03/29 09:51:23;;;;;;;8.27;1.90;;;3.10;99.90;;;;;;4907738;29;20305;-92
2021/03/29 09:54:19;;;;;;;9.33;2.27;;;3.10;99.90;;;;;;4905247;29;20570;-93
2021/03/29 09:56:50;;;;;;;5.60;2.00;;;3.10;99.90;;;;;;4916475;29;20210;-95
2021/03/29 09:59:33;;;;;;;7.77;2.37;;;3.00;99.90;;;;;;4907703;29;20316;-93
2021/03/29 10:02:16;;;;;;;9.20;2.60;;;2.90;99.90;;;;;;4907031;29;20604;-93
2021/03/29 10:13:09;;;;;;;11.77;2.93;;;3.20;99.90;;;;;;5326977;23;20296;-94
2021/03/29 10:15:43;;;;;;;8.63;2.00;;;3.10;99.90;;;;;;4911946;29;20225;-92
2021/03/29 10:18:18;;;;;;;7.73;2.43;;;3.00;99.90;;;;;;4904298;29;20253;-93
2021/03/29 10:20:50;;;;;;;5.27;2.10;;;2.90;99.90;;;;;;4906890;29;20241;-92
2021/03/29 10:26:21;;;;;;;6.37;2.00;;;2.80;99.90;;;;;;4906655;29;20209;-93
2021/03/29 10:28:56;;;;;;;8.00;2.63;;;2.90;99.90;;;;;;4903307;29;20270;-95
2021/03/29 10:31:41;;;;;;;8.17;2.93;;;2.80;99.90;;;;;;4906155;29;20272;-94
2021/03/29 10:34:34;;;;;;;8.13;2.13;;;2.80;99.90;;;;;;4912711;29;20216;-93
2021/03/29 10:48:39;;;;;;;16.27;3.70;;;2.80;99.90;;;;;;4885053;29;20218;-92
2021/03/29 10:51:19;;;;;;;9.43;2.70;;;2.70;99.90;;;;;;4885789;29;20218;-93
2021/03/29 11:07:38;;;;;;;9.80;2.67;;;2.70;99.90;;;;;;5304892;23;20482;-91
2021/03/29 11:10:10;;;;;;;17.77;3.10;;;2.50;99.90;;;;;;4924305;29;20216;-92
2021/03/29 11:12:42;;;;;;;8.40;2.50;;;2.50;99.90;;;;;;4931925;29;20217;-92
2021/03/29 11:15:14;;;;;;;10.93;3.40;;;2.50;99.90;;;;;;4930780;29;20249;-92
2021/03/29 11:21:03;;;;;;;11.07;3.10;;;2.60;99.90;;;;;;5487889;23;20328;-92
2021/03/29 11:23:37;;;;;;;10.03;3.30;;;2.50;99.90;;;;;;4926426;29;20213;-93
2021/03/29 11:36:54;;;;;;;10.13;2.60;;;2.60;99.90;;;;;;4985631;23;20260;-92
2021/03/29 11:39:48;;;;;;;13.67;2.90;;;2.60;99.90;;;;;;4917211;29;20240;-91
2021/03/29 11:42:35;;;;;;;17.30;3.50;;;2.60;99.90;;;;;;4919062;29;20197;-92
2021/03/29 11:45:34;;;;;;;18.87;3.17;;;2.70;99.90;;;;;;4911142;29;20237;-94
2021/03/29 11:48:09;;;;;;;13.70;2.90;;;2.60;99.90;;;;;;4907171;29;20221;-94
2021/03/29 12:04:59;;;;;;;12.17;2.93;;;2.60;99.90;;;;;;5313762;23;20324;-93
2021/03/29 12:08:27;;;;;;;13.07;3.30;;;2.50;99.90;;;;;;4933553;29;20224;-94
2021/03/29 12:14:18;;;;;;;12.83;2.63;;;2.40;99.90;;;;;;4927339;29;20213;-93
2021/03/29 12:16:52;;;;;;;10.87;2.70;;;2.40;99.90;;;;;;4925652;29;20216;-92
2021/03/29 12:19:26;;;;;;;16.07;3.33;;;2.30;99.90;;;;;;4923729;29;20240;-91
2021/03/29 12:38:05;;;;;;;15.53;2.83;;;2.10;99.90;;;;;;4904322;29;20273;-93
2021/03/29 12:40:41;;;;;;;15.13;3.03;;;2.00;99.90;;;;;;4903405;29;20209;-92
2021/03/29 12:43:15;;;;;;;11.93;2.37;;;1.90;99.90;;;;;;4904576;29;20282;-93
2021/03/29 13:40:55;;;;;;;15.27;3.57;;;2.60;99.90;;;;;;5328143;23;20290;-93
2021/03/29 13:43:27;;;;;;;11.70;3.33;;;2.50;99.90;;;;;;4924259;29;20239;-93
2021/03/29 13:48:42;;;;;;;16.40;3.20;;;2.40;99.90;;;;;;4928665;29;20260;-94
2021/03/29 13:51:15;;;;;;;15.10;3.73;;;2.40;99.90;;;;;;4928943;29;20211;-93
2021/03/29 13:53:53;;;;;;;12.77;3.03;;;2.30;99.90;;;;;;4927453;29;20220;-93
2021/03/29 13:56:25;;;;;;;11.87;2.60;;;2.20;99.90;;;;;;4929136;29;20537;-92
2021/03/29 13:58:56;;;;;;;11.83;3.03;;;2.10;99.90;;;;;;4926413;29;20236;-92
2021/03/29 14:01:31;;;;;;;9.97;2.80;;;2.10;99.90;;;;;;4924878;29;20245;-93
2021/03/29 14:04:07;;;;;;;12.10;3.27;;;2.10;99.90;;;;;;4923581;29;20224;-91
2021/03/29 14:06:38;;;;;;;19.33;3.80;;;2.10;99.90;;;;;;4924056;29;20521;-93
2021/03/29 14:09:11;;;;;;;14.00;2.60;;;2.00;99.90;;;;;;4923652;29;20273;-92
2021/03/29 14:11:47;;;;;;;13.43;3.20;;;2.00;99.90;;;;;;4923237;29;20209;-93
2021/03/29 14:14:20;;;;;;;18.27;3.50;;;1.90;99.90;;;;;;4926053;29;20213;-92
2021/03/29 14:16:51;;;;;;;12.33;2.90;;;1.80;99.90;;;;;;4929441;29;20193;-91
2021/03/29 14:19:23;;;;;;;12.57;3.47;;;1.80;99.90;;;;;;4938144;29;20338;-90
2021/03/29 14:21:56;;;;;;;14.10;3.30;;;1.80;99.90;;;;;;4935848;29;20312;-92
2021/03/29 14:24:29;;;;;;;10.73;2.97;;;1.80;99.90;;;;;;4939255;29;20205;-90
2021/03/29 14:27:01;;;;;;;12.90;3.07;;;1.80;99.90;;;;;;4940001;29;20274;-89
2021/03/29 14:29:41;;;;;;;12.67;3.00;;;1.70;99.90;;;;;;4928387;29;20216;-92
2021/03/29 14:32:16;;;;;;;10.20;3.70;;;1.70;99.90;;;;;;4924324;29;20267;-94
2021/03/29 14:34:56;;;;;;;10.07;3.00;;;1.70;99.90;;;;;;4924134;29;20306;-94
2021/03/29 14:40:35;;;;;;;11.07;3.20;;;1.70;99.90;;;;;;4881293;29;20242;-93
2021/03/29 14:43:10;;;;;;;13.27;2.97;;;1.60;99.90;;;;;;4916941;29;20209;-93
2021/03/29 14:45:42;;;;;;;9.80;3.50;;;1.60;99.90;;;;;;4921758;29;20208;-93
2021/03/29 14:48:14;;;;;;;9.00;3.07;;;1.60;99.90;;;;;;4921042;29;20213;-94
2021/03/29 14:50:47;;;;;;;11.60;3.20;;;1.60;99.90;;;;;;4922721;29;20664;-93
2021/03/29 14:56:23;;;;;;;15.50;3.47;;;1.90;99.90;;;;;;4934915;29;20216;-91
2021/03/29 14:58:57;;;;;;;17.00;2.93;;;2.00;99.90;;;;;;4924205;29;20236;-91
2021/03/29 15:01:29;;;;;;;10.90;2.77;;;2.00;99.90;;;;;;4924116;29;20225;-94
2021/03/29 15:03:59;;;;;;;14.37;3.47;;;2.10;99.90;;;;;;4921765;29;20217;-91
2021/03/29 15:06:37;;;;;;;13.23;3.17;;;2.10;99.90;;;;;;4921059;29;20219;-92
2021/03/29 15:09:07;;;;;;;8.50;2.93;;;2.10;99.90;;;;;;4921672;29;20629;-92
2021/03/29 15:11:38;;;;;;;11.60;3.57;;;2.20;99.90;;;;;;4922060;29;20216;-92
2021/03/29 15:14:23;;;;;;;15.40;3.40;;;2.30;99.90;;;;;;4921461;29;20205;-92
2021/03/29 15:16:58;;;;;;;11.77;3.33;;;2.30;99.90;;;;;;4921200;29;20686;-92
2021/03/29 15:19:28;;;;;;;10.43;3.43;;;2.40;99.90;;;;;;4920675;29;20248;-91
2021/03/29 15:22:00;;;;;;;9.80;3.33;;;2.50;99.90;;;;;;4922350;29;20217;-93
2021/03/29 15:24:41;;;;;;;11.03;3.87;;;2.60;99.90;;;;;;4922949;29;20216;-92
2021/03/29 15:27:13;;;;;;;10.20;3.00;;;2.70;99.90;;;;;;4921431;29;20651;-92
2021/03/29 15:29:47;;;;;;;14.10;3.43;;;2.80;99.90;;;;;;4923035;29;20253;-92
2021/03/29 15:32:17;;;;;;;9.33;2.97;;;2.90;99.90;;;;;;4924910;29;20674;-93
2021/03/29 15:34:48;;;;;;;11.43;3.70;;;3.00;99.90;;;;;;4921826;29;20277;-93
2021/03/29 15:37:19;;;;;;;10.13;3.27;;;3.20;99.90;;;;;;4931481;29;20212;-92
2021/03/29 15:40:01;;;;;;;15.23;3.63;;;3.30;99.90;;;;;;4937301;29;20268;-94
2021/03/29 15:42:35;;;;;;;12.57;3.20;;;3.50;99.90;;;;;;4936388;29;20208;-93
2021/03/29 15:45:09;;;;;;;8.57;2.80;;;3.60;99.90;;;;;;4935414;29;20260;-93
2021/03/29 15:47:41;;;;;;;10.57;3.13;;;3.70;99.90;;;;;;4911089;29;20234;-92
2021/03/29 15:50:35;;;;;;;10.47;3.60;;;3.80;99.90;;;;;;4909952;29;20304;-91
2021/03/29 15:53:09;;;;;;;11.33;3.17;;;4.00;99.90;;;;;;4908928;29;20265;-92
2021/03/29 15:55:41;;;;;;;12.83;3.10;;;4.10;99.90;;;;;;4911030;29;20221;-91
2021/03/29 15:58:13;;;;;;;9.53;2.97;;;4.20;99.90;;;;;;4917684;29;20780;-91
2021/03/29 16:00:46;;;;;;;11.33;3.63;;;4.30;99.90;;;;;;4916084;29;20694;-92
2021/03/29 16:03:24;;;;;;;15.60;2.93;;;4.50;99.90;;;;;;4928022;29;20243;-92
2021/03/29 16:06:09;;;;;;;10.17;2.30;;;4.60;99.90;;;;;;4930245;29;20236;-93
2021/03/29 16:08:43;;;;;;;11.93;2.77;;;4.60;99.90;;;;;;4926268;29;20327;-92
2021/03/29 16:11:13;;;;;;;11.67;3.17;;;4.70;99.90;;;;;;4925969;29;20216;-92
2021/03/29 16:13:46;;;;;;;10.47;2.40;;;4.70;99.90;;;;;;4925759;29;20205;-92
2021/03/29 16:16:19;;;;;;;10.33;2.87;;;4.80;99.90;;;;;;4925067;29;20648;-92
2021/03/29 16:18:50;;;;;;;10.60;3.00;;;4.80;99.90;;;;;;4924856;29;20273;-91
2021/03/29 16:21:22;;;;;;;15.03;3.67;;;4.90;99.90;;;;;;4925540;29;20231;-92
2021/03/29 16:23:53;;;;;;;12.80;3.27;;;5.00;99.90;;;;;;4929982;29;20241;-92
2021/03/29 16:26:25;;;;;;;10.40;2.73;;;5.10;99.90;;;;;;4930070;29;20260;-93
2021/03/29 16:28:56;;;;;;;13.83;3.40;;;5.00;99.90;;;;;;4924125;29;20213;-94
2021/03/29 16:31:33;;;;;;;17.33;3.03;;;4.90;99.90;;;;;;4926146;29;20220;-94
2021/03/29 16:34:08;;;;;;;10.93;2.90;;;4.90;99.90;;;;;;4924565;29;20764;-93
2021/03/29 16:36:39;;;;;;;11.53;2.70;;;4.90;99.90;;;;;;4922720;29;20212;-93
2021/03/29 16:39:13;;;;;;;7.87;2.60;;;5.20;99.90;;;;;;4923022;29;20237;-92
2021/03/29 16:41:45;;;;;;;10.33;2.77;;;5.30;99.90;;;;;;4905965;29;20261;-92
2021/03/29 16:44:16;;;;;;;11.47;3.00;;;5.40;99.90;;;;;;4906419;29;20269;-93
2021/03/29 16:46:53;;;;;;;9.00;2.87;;;5.50;99.90;;;;;;4904856;29;20324;-92
2021/03/29 16:49:25;;;;;;;12.73;3.43;;;5.50;99.90;;;;;;4903842;29;20278;-93
2021/03/29 16:51:56;;;;;;;13.53;2.80;;;5.60;99.90;;;;;;4905674;29;20233;-92
2021/03/29 16:54:29;;;;;;;13.90;3.50;;;5.60;99.90;;;;;;4905038;29;20218;-92
2021/03/29 16:56:59;;;;;;;8.03;2.93;;;5.70;99.90;;;;;;4904393;29;20273;-92
2021/03/29 16:59:30;;;;;;;12.47;3.20;;;5.70;99.90;;;;;;4920792;29;20237;-91
2021/03/29 17:02:04;;;;;;;10.10;2.83;;;5.80;99.90;;;;;;4923937;29;20209;-91
2021/03/29 17:04:34;;;;;;;10.17;2.50;;;6.00;99.90;;;;;;4927030;29;20205;-93
2021/03/29 17:07:06;;;;;;;12.10;3.20;;;6.00;99.90;;;;;;4931344;29;20213;-92
2021/03/29 17:09:36;;;;;;;10.53;2.47;;;6.00;99.90;;;;;;4929010;29;20216;-89
2021/03/29 17:12:08;;;;;;;9.50;2.60;;;6.10;99.90;;;;;;4930805;29;20246;-90
2021/03/29 17:14:38;;;;;;;11.63;2.83;;;6.00;99.90;;;;;;4930778;29;20217;-90
2021/03/29 17:17:22;;;;;;;10.13;3.03;;;6.00;99.90;;;;;;4935277;29;20207;-89